createdAt,value
2022-12-18T00:01:06.819Z,-3.87
2022-12-18T00:03:35.137Z,-3.99
2022-12-18T00:06:03.772Z,-3.90
2022-12-18T00:08:31.508Z,-3.78
2022-12-18T00:11:07.050Z,-3.81
2022-12-18T00:13:35.799Z,-4.05
2022-12-18T00:16:06.254Z,-3.81
2022-12-18T00:18:34.204Z,-3.88
2022-12-18T00:21:02.714Z,-3.88
2022-12-18T00:23:30.954Z,-3.87
2022-12-18T00:26:01.168Z,-4.09
2022-12-18T00:28:29.154Z,-3.89
2022-12-18T00:31:02.609Z,-3.99
2022-12-18T00:33:31.938Z,-4.06
2022-12-18T00:36:03.020Z,-4.42
2022-12-18T00:38:30.758Z,-4.03
2022-12-18T00:40:58.401Z,-4.01
2022-12-18T00:43:25.225Z,-4.13
2022-12-18T00:45:52.985Z,-4.02
2022-12-18T00:48:20.898Z,-3.82
2022-12-18T00:50:51.406Z,-3.76
2022-12-18T00:53:19.351Z,-3.87
2022-12-18T00:55:47.954Z,-4.04
2022-12-18T00:58:18.257Z,-4.05
2022-12-18T01:00:46.011Z,-4.00
2022-12-18T01:03:16.007Z,-4.08
2022-12-18T01:05:44.434Z,-4.06
2022-12-18T01:08:13.534Z,-3.88
2022-12-18T01:10:42.798Z,-4.24
2022-12-18T01:13:10.423Z,-4.21
2022-12-18T01:15:38.081Z,-4.32
2022-12-18T01:18:05.712Z,-4.31
2022-12-18T01:20:33.425Z,-4.36
2022-12-18T01:23:01.075Z,-4.31
2022-12-18T01:25:30.206Z,-4.48
2022-12-18T01:27:57.947Z,-4.47
2022-12-18T01:30:25.726Z,-4.56
2022-12-18T01:32:53.307Z,-4.46
2022-12-18T01:35:21.074Z,-4.42
2022-12-18T01:37:48.688Z,-4.29
2022-12-18T01:40:16.333Z,-4.42
2022-12-18T01:42:45.347Z,-4.52
2022-12-18T01:45:34.404Z,-4.45
2022-12-18T01:48:05.272Z,-4.63
2022-12-18T01:50:36.440Z,-4.73
2022-12-18T01:53:07.634Z,-4.74
2022-12-18T01:55:40.774Z,-4.58
2022-12-18T01:58:09.864Z,-4.42
2022-12-18T02:00:37.584Z,-4.57
2022-12-18T02:03:05.210Z,-4.69
2022-12-18T02:05:46.134Z,-4.60
2022-12-18T02:08:20.044Z,-4.48
2022-12-18T02:10:55.207Z,-4.47
2022-12-18T02:13:34.296Z,-4.42
2022-12-18T02:16:10.171Z,-4.50
2022-12-18T02:18:40.301Z,-4.41
2022-12-18T02:21:15.101Z,-4.45
2022-12-18T02:23:50.189Z,-4.33
2022-12-18T02:26:24.084Z,-4.20
2022-12-18T02:28:55.907Z,-4.24
2022-12-18T02:31:28.683Z,-4.26
2022-12-18T02:34:00.416Z,-4.44
2022-12-18T02:36:31.004Z,-4.43
2022-12-18T02:38:59.932Z,-4.55
2022-12-18T02:41:29.461Z,-4.71
2022-12-18T02:44:00.316Z,-4.92
2022-12-18T02:46:33.091Z,-4.64
2022-12-18T02:49:11.011Z,-4.61
2022-12-18T02:51:49.074Z,-4.82
2022-12-18T02:54:27.274Z,-4.70
2022-12-18T02:56:59.869Z,-4.71
2022-12-18T02:59:36.188Z,-4.82
2022-12-18T03:02:09.519Z,-5.01
2022-12-18T03:04:44.643Z,-4.83
2022-12-18T03:07:20.422Z,-4.90
2022-12-18T03:09:52.101Z,-5.09
2022-12-18T03:12:25.742Z,-5.32
2022-12-18T03:15:00.108Z,-4.84
2022-12-18T03:17:29.735Z,-4.81
2022-12-18T03:20:01.916Z,-4.75
2022-12-18T03:22:33.987Z,-4.82
2022-12-18T03:25:04.889Z,-4.95
2022-12-18T03:27:38.134Z,-4.93
2022-12-18T03:30:09.211Z,-4.84
2022-12-18T03:32:43.484Z,-4.93
2022-12-18T03:35:15.384Z,-4.92
2022-12-18T03:37:43.111Z,-4.87
2022-12-18T03:40:11.689Z,-4.94
2022-12-18T03:42:48.781Z,-5.14
2022-12-18T03:45:22.728Z,-5.07
2022-12-18T03:48:00.338Z,-5.11
2022-12-18T03:50:38.074Z,-5.16
2022-12-18T03:53:19.201Z,-5.19
2022-12-18T03:55:47.761Z,-5.29
2022-12-18T03:58:21.259Z,-5.35
2022-12-18T04:00:52.274Z,-5.37
2022-12-18T04:03:26.155Z,-5.24
2022-12-18T04:05:56.186Z,-5.24
2022-12-18T04:08:24.930Z,-5.22
2022-12-18T04:10:52.629Z,-5.21
2022-12-18T04:13:25.882Z,-5.24
2022-12-18T04:15:53.955Z,-5.29
2022-12-18T04:18:21.617Z,-5.32
2022-12-18T04:20:49.347Z,-5.30
2022-12-18T04:23:16.965Z,-5.37
2022-12-18T04:25:44.672Z,-5.36
2022-12-18T04:28:12.327Z,-5.41
2022-12-18T04:30:41.422Z,-5.45
2022-12-18T04:33:10.966Z,-5.53
2022-12-18T04:35:38.573Z,-5.46
2022-12-18T04:38:07.454Z,-5.58
2022-12-18T04:40:34.917Z,-5.62
2022-12-18T04:43:02.597Z,-5.67
2022-12-18T04:45:30.464Z,-5.79
2022-12-18T04:48:00.465Z,-5.83
2022-12-18T04:50:28.303Z,-5.87
2022-12-18T04:52:56.004Z,-6.00
2022-12-18T04:55:26.833Z,-5.88
2022-12-18T04:57:54.646Z,-5.76
2022-12-18T05:00:22.935Z,-5.79
2022-12-18T05:02:50.674Z,-5.80
2022-12-18T05:05:20.134Z,-5.80
2022-12-18T05:07:47.796Z,-5.72
2022-12-18T05:10:15.461Z,-5.89
2022-12-18T05:12:57.051Z,-5.77
2022-12-18T05:15:24.707Z,-5.73
2022-12-18T05:17:52.344Z,-5.73
2022-12-18T05:20:21.431Z,-5.78
2022-12-18T05:22:49.224Z,-5.78
2022-12-18T05:25:16.999Z,-5.82
2022-12-18T05:27:44.617Z,-5.85
2022-12-18T05:30:13.228Z,-5.86
2022-12-18T05:32:41.624Z,-5.77
2022-12-18T05:35:11.506Z,-5.80
2022-12-18T05:37:43.141Z,-5.87
2022-12-18T05:40:12.927Z,-5.98
2022-12-18T05:42:40.774Z,-5.98
2022-12-18T05:45:09.447Z,-5.97
2022-12-18T05:47:37.043Z,-5.97
2022-12-18T05:50:05.230Z,-6.02
2022-12-18T05:52:32.859Z,-6.01
2022-12-18T05:55:01.809Z,-6.05
2022-12-18T05:57:29.507Z,-6.03
2022-12-18T05:59:57.101Z,-5.98
2022-12-18T06:02:24.853Z,-6.00
2022-12-18T06:04:52.651Z,-6.07
2022-12-18T06:07:20.247Z,-6.04
2022-12-18T06:09:47.934Z,-6.05
2022-12-18T06:12:16.879Z,-6.09
2022-12-18T06:14:44.475Z,-6.19
2022-12-18T06:17:12.059Z,-6.17
2022-12-18T06:19:39.850Z,-6.23
2022-12-18T06:22:07.444Z,-6.24
2022-12-18T06:24:35.179Z,-6.21
2022-12-18T06:27:03.312Z,-6.20
2022-12-18T06:29:32.321Z,-6.17
2022-12-18T06:31:59.946Z,-6.21
2022-12-18T06:34:27.891Z,-6.20
2022-12-18T06:36:55.551Z,-6.18
2022-12-18T06:39:23.140Z,-6.13
2022-12-18T06:41:50.721Z,-6.17
2022-12-18T06:44:18.426Z,-6.20
2022-12-18T06:46:47.543Z,-6.19
2022-12-18T06:49:15.228Z,-6.19
2022-12-18T06:51:43.491Z,-6.24
2022-12-18T06:54:11.138Z,-6.28
2022-12-18T06:56:38.754Z,-6.27
2022-12-18T06:59:06.333Z,-6.30
2022-12-18T07:01:34.058Z,-6.30
2022-12-18T07:04:03.172Z,-6.31
2022-12-18T07:06:30.788Z,-6.28
2022-12-18T07:08:58.491Z,-6.32
2022-12-18T07:11:26.519Z,-6.22
2022-12-18T07:13:55.340Z,-6.25
2022-12-18T07:16:25.499Z,-6.14
2022-12-18T07:18:53.609Z,-6.22
2022-12-18T07:21:24.112Z,-6.16
2022-12-18T07:23:51.853Z,-6.15
2022-12-18T07:26:22.279Z,-6.18
2022-12-18T07:28:50.293Z,-6.22
2022-12-18T07:31:19.952Z,-6.22
2022-12-18T07:33:49.901Z,-6.19
2022-12-18T07:36:17.864Z,-6.23
2022-12-18T07:38:48.877Z,-6.16
2022-12-18T07:41:16.592Z,-6.11
2022-12-18T07:43:44.536Z,-6.12
2022-12-18T07:46:14.769Z,-6.22
2022-12-18T07:48:42.934Z,-6.15
2022-12-18T07:51:15.257Z,-6.12
2022-12-18T07:53:43.944Z,-6.04
2022-12-18T07:56:31.168Z,-6.16
2022-12-18T07:58:59.975Z,-6.00
2022-12-18T08:01:28.168Z,-5.95
2022-12-18T08:03:56.299Z,-5.96
2022-12-18T08:06:24.762Z,-5.96
2022-12-18T08:08:53.609Z,-5.96
2022-12-18T08:11:22.763Z,-5.86
2022-12-18T08:13:50.385Z,-5.88
2022-12-18T08:16:19.112Z,-5.80
2022-12-18T08:18:47.952Z,-5.79
2022-12-18T08:21:17.823Z,-5.62
2022-12-18T08:23:45.938Z,-5.66
2022-12-18T08:26:13.913Z,-5.65
2022-12-18T08:28:43.348Z,-5.60
2022-12-18T08:31:11.382Z,-5.51
2022-12-18T08:33:41.026Z,-5.53
2022-12-18T08:36:11.441Z,-5.46
2022-12-18T08:38:39.175Z,-5.52
2022-12-18T08:41:09.507Z,-5.42
2022-12-18T08:43:54.957Z,-5.49
2022-12-18T08:46:26.074Z,-5.44
2022-12-18T08:48:54.990Z,-5.35
2022-12-18T08:51:22.601Z,-5.29
2022-12-18T08:53:50.386Z,-5.27
2022-12-18T08:56:18.447Z,-5.30
2022-12-18T08:58:46.146Z,-5.20
2022-12-18T09:01:15.022Z,-5.15
2022-12-18T09:03:44.664Z,-5.06
2022-12-18T09:06:16.569Z,-5.02
2022-12-18T09:08:44.630Z,-4.88
2022-12-18T09:11:18.314Z,-4.85
2022-12-18T09:13:45.992Z,-4.75
2022-12-18T09:16:14.240Z,-4.70
2022-12-18T09:18:42.460Z,-4.76
2022-12-18T09:21:13.916Z,-4.52
2022-12-18T09:23:41.812Z,-4.64
2022-12-18T09:26:09.670Z,-4.52
2022-12-18T09:28:37.577Z,-4.57
2022-12-18T09:31:08.660Z,-4.50
2022-12-18T09:33:37.028Z,-4.45
2022-12-18T09:36:08.135Z,-4.51
2022-12-18T09:38:37.829Z,-4.56
2022-12-18T09:41:16.654Z,-4.34
2022-12-18T09:43:49.219Z,-4.24
2022-12-18T09:46:21.507Z,-4.28
2022-12-18T09:48:53.234Z,-4.43
2022-12-18T09:51:30.677Z,-4.24
2022-12-18T09:54:04.814Z,-4.26
2022-12-18T09:56:39.724Z,-4.11
2022-12-18T09:59:07.593Z,-4.11
2022-12-18T10:01:43.241Z,-4.07
2022-12-18T10:04:12.276Z,-3.99
2022-12-18T10:06:48.214Z,-3.93
2022-12-18T10:09:27.223Z,-3.79
2022-12-18T10:12:04.552Z,-3.78
2022-12-18T10:14:42.958Z,-3.70
2022-12-18T10:17:20.718Z,-3.63
2022-12-18T10:19:52.620Z,-3.64
2022-12-18T10:22:30.351Z,-3.69
2022-12-18T10:25:05.559Z,-3.63
2022-12-18T10:27:34.601Z,-3.63
2022-12-18T10:30:03.327Z,-3.53
2022-12-18T10:32:32.723Z,-3.43
2022-12-18T10:35:01.245Z,-3.35
2022-12-18T10:37:31.469Z,-3.73
2022-12-18T10:40:21.789Z,-3.43
2022-12-18T10:43:13.250Z,-3.40
2022-12-18T10:45:41.432Z,-3.58
2022-12-18T10:48:21.082Z,-3.23
2022-12-18T10:53:43.542Z,-3.20
2022-12-18T10:56:12.939Z,-3.15
2022-12-18T10:58:41.701Z,-3.16
2022-12-18T11:01:12.857Z,-3.09
2022-12-18T11:03:42.534Z,-2.95
2022-12-18T11:06:12.674Z,-2.82
2022-12-18T11:08:41.160Z,-2.89
2022-12-18T11:11:22.380Z,-2.96
2022-12-18T11:14:17.873Z,-2.85
2022-12-18T11:17:23.741Z,-2.78
2022-12-18T11:19:40.656Z,-2.64
2022-12-18T11:22:22.270Z,-2.54
2022-12-18T11:25:29.492Z,-2.76
2022-12-18T11:27:50.601Z,-2.49
2022-12-18T11:30:24.597Z,-2.73
2022-12-18T11:32:55.180Z,-2.54
2022-12-18T11:35:30.036Z,-2.30
2022-12-18T11:38:06.621Z,-2.29
2022-12-18T11:40:41.104Z,-2.43
2022-12-18T11:43:15.228Z,-2.35
2022-12-18T11:45:49.411Z,-2.43
2022-12-18T11:48:20.574Z,-2.52
2022-12-18T11:50:52.172Z,-2.43
2022-12-18T11:53:20.700Z,-2.32
2022-12-18T11:56:00.041Z,-2.35
2022-12-18T11:58:46.902Z,-2.24
2022-12-18T12:01:29.466Z,-2.03
2022-12-18T12:04:26.951Z,-1.98
2022-12-18T12:07:05.959Z,-2.10
2022-12-18T12:09:40.727Z,-2.17
2022-12-18T12:12:22.411Z,-2.22
2022-12-18T12:15:03.315Z,-1.97
2022-12-18T12:17:38.368Z,-1.79
2022-12-18T12:20:16.235Z,-1.85
2022-12-18T12:22:51.244Z,-1.97
2022-12-18T12:25:30.702Z,-1.96
2022-12-18T12:28:07.533Z,-1.88
2022-12-18T12:30:47.770Z,-1.93
2022-12-18T12:33:29.447Z,-1.74
2022-12-18T12:36:10.406Z,-1.72
2022-12-18T12:38:49.829Z,-1.73
2022-12-18T12:41:43.206Z,-1.70
2022-12-18T12:44:18.636Z,-1.73
2022-12-18T12:46:49.770Z,-1.71
2022-12-18T12:49:21.369Z,-1.88
2022-12-18T12:51:59.058Z,-1.63
2022-12-18T12:54:28.670Z,-1.64
2022-12-18T12:57:04.265Z,-1.62
2022-12-18T12:59:40.978Z,-1.66
2022-12-18T13:02:20.101Z,-1.46
2022-12-18T13:04:54.390Z,-1.57
2022-12-18T13:07:28.732Z,-1.48
2022-12-18T13:10:27.384Z,-1.58
2022-12-18T13:12:59.977Z,-1.48
2022-12-18T13:15:33.761Z,-1.51
2022-12-18T13:18:21.004Z,-1.48
2022-12-18T13:20:55.294Z,-1.52
2022-12-18T13:23:37.162Z,-1.54
2022-12-18T13:26:38.364Z,-1.53
2022-12-18T13:29:06.977Z,-1.44
2022-12-18T13:32:01.696Z,-1.41
2022-12-18T13:34:32.974Z,-1.44
2022-12-18T13:37:34.493Z,-1.28
2022-12-18T13:40:02.151Z,-1.22
2022-12-18T13:43:00.319Z,-1.25
2022-12-18T13:45:47.474Z,-1.37
2022-12-18T13:48:21.171Z,-1.32
2022-12-18T13:50:55.664Z,-1.31
2022-12-18T13:53:28.063Z,-1.45
2022-12-18T13:55:56.073Z,-1.35
2022-12-18T13:58:24.366Z,-1.35
2022-12-18T14:00:52.363Z,-1.32
2022-12-18T14:03:23.477Z,-1.37
2022-12-18T14:05:58.767Z,-1.41
2022-12-18T14:08:29.490Z,-1.31
2022-12-18T14:10:57.382Z,-1.38
2022-12-18T14:13:29.944Z,-1.37
2022-12-18T14:15:59.528Z,-1.48
2022-12-18T14:18:35.869Z,-1.28
2022-12-18T14:21:06.099Z,-1.33
2022-12-18T14:23:36.642Z,-1.29
2022-12-18T14:26:20.964Z,-1.35
2022-12-18T14:28:48.830Z,-1.38
2022-12-18T14:31:20.509Z,-1.39
2022-12-18T14:33:48.332Z,-1.42
2022-12-18T14:36:21.271Z,-1.39
2022-12-18T14:38:52.713Z,-1.41
2022-12-18T14:41:21.758Z,-1.32
2022-12-18T14:43:51.369Z,-1.36
2022-12-18T14:46:32.124Z,-1.51
2022-12-18T14:49:00.501Z,-1.40
2022-12-18T14:51:31.774Z,-1.44
2022-12-18T14:54:01.325Z,-1.35
2022-12-18T14:56:31.061Z,-1.37
2022-12-18T14:59:00.251Z,-1.34
2022-12-18T15:01:30.985Z,-1.35
2022-12-18T15:04:00.468Z,-1.37
2022-12-18T15:06:33.024Z,-1.35
2022-12-18T15:09:01.294Z,-1.43
2022-12-18T15:11:38.157Z,-1.37
2022-12-18T15:14:26.467Z,-1.35
2022-12-18T15:16:56.079Z,-1.68
2022-12-18T15:19:28.380Z,-1.34
2022-12-18T15:22:00.248Z,-1.32
2022-12-18T15:24:34.519Z,-1.38
2022-12-18T15:27:02.745Z,-1.35
2022-12-18T15:29:30.365Z,-1.27
2022-12-18T15:32:04.300Z,-1.34
2022-12-18T15:34:33.144Z,-1.33
2022-12-18T15:37:02.171Z,-1.33
2022-12-18T15:39:30.309Z,-1.31
2022-12-18T15:42:15.402Z,-1.28
2022-12-18T15:44:43.109Z,-1.27
2022-12-18T15:47:13.853Z,-1.26
2022-12-18T15:49:41.623Z,-1.27
2022-12-18T15:52:15.233Z,-1.22
2022-12-18T15:54:56.838Z,-1.22
2022-12-18T15:57:27.805Z,-1.25
2022-12-18T15:59:59.006Z,-1.26
2022-12-18T16:02:28.745Z,-1.23
2022-12-18T16:04:56.567Z,-1.22
2022-12-18T16:07:28.204Z,-1.22
2022-12-18T16:09:58.894Z,-1.22
2022-12-18T16:12:27.983Z,-1.19
2022-12-18T16:14:55.642Z,-1.22
2022-12-18T16:17:23.314Z,-1.19
2022-12-18T16:19:50.967Z,-1.26
2022-12-18T16:22:23.159Z,-1.16
2022-12-18T16:24:53.649Z,-1.03
2022-12-18T16:27:21.654Z,-1.15
2022-12-18T16:29:49.322Z,-1.14
2022-12-18T16:32:19.315Z,-1.10
2022-12-18T16:34:47.820Z,-1.14
2022-12-18T16:37:16.913Z,-1.05
2022-12-18T16:39:45.108Z,-1.01
2022-12-18T16:42:17.437Z,-1.01
2022-12-18T16:44:46.486Z,-1.04
2022-12-18T16:47:15.346Z,-1.04
2022-12-18T16:49:43.411Z,-1.02
2022-12-18T16:52:11.078Z,-1.01
2022-12-18T16:54:38.741Z,-0.92
2022-12-18T16:57:06.484Z,-1.00
2022-12-18T16:59:35.670Z,-0.97
2022-12-18T17:02:06.879Z,-0.99
2022-12-18T17:04:34.813Z,-1.00
2022-12-18T17:07:02.647Z,-0.92
2022-12-18T17:09:30.332Z,-0.94
2022-12-18T17:11:57.944Z,-0.91
2022-12-18T17:14:26.340Z,-0.87
2022-12-18T17:17:20.338Z,-0.87
2022-12-18T17:19:44.619Z,-0.83
2022-12-18T17:22:12.339Z,-0.87
2022-12-18T17:24:39.925Z,-0.85
2022-12-18T17:27:08.787Z,-0.86
2022-12-18T17:29:36.313Z,-0.82
2022-12-18T17:32:05.873Z,-0.83
2022-12-18T17:34:33.518Z,-0.81
2022-12-18T17:37:01.203Z,-0.81
2022-12-18T17:39:30.651Z,-0.81
2022-12-18T17:41:59.402Z,-0.78
2022-12-18T17:44:27.088Z,-0.74
2022-12-18T17:46:54.740Z,-0.76
2022-12-18T17:49:23.876Z,-0.74
2022-12-18T17:51:51.506Z,-0.75
2022-12-18T17:54:19.233Z,-0.73
2022-12-18T17:56:47.214Z,-0.70
2022-12-18T17:59:15.616Z,-0.67
2022-12-18T18:01:45.180Z,-0.65
2022-12-18T18:04:13.711Z,-0.76
2022-12-18T18:06:42.800Z,-0.63
2022-12-18T18:09:16.889Z,-0.60
2022-12-18T18:11:58.834Z,-0.55
2022-12-18T18:14:27.090Z,-0.57
2022-12-18T18:16:55.802Z,-0.60
2022-12-18T18:19:25.812Z,-0.60
2022-12-18T18:21:54.856Z,-0.55
2022-12-18T18:24:25.753Z,-0.57
2022-12-18T18:26:53.609Z,-0.57
2022-12-18T18:29:23.341Z,-0.53
2022-12-18T18:31:51.593Z,-0.66
2022-12-18T18:34:24.113Z,-0.56
2022-12-18T18:36:51.834Z,-0.50
2022-12-18T18:39:21.053Z,-0.44
2022-12-18T18:41:49.039Z,-0.46
2022-12-18T18:44:17.136Z,-0.47
2022-12-18T18:46:45.109Z,-0.41
2022-12-18T18:49:13.663Z,-0.39
2022-12-18T18:51:41.328Z,-0.45
2022-12-18T18:54:09.621Z,-0.40
2022-12-18T18:57:11.725Z,-0.39
2022-12-18T18:59:31.595Z,-0.36
2022-12-18T19:02:00.681Z,-0.36
2022-12-18T19:04:32.320Z,-0.29
2022-12-18T19:06:59.943Z,-0.32
2022-12-18T19:09:28.724Z,-0.30
2022-12-18T19:12:15.921Z,-0.27
2022-12-18T19:14:43.587Z,-0.29
2022-12-18T19:17:11.354Z,-0.23
2022-12-18T19:19:39.488Z,-0.23
2022-12-18T19:22:07.769Z,-0.18
2022-12-18T19:24:36.503Z,-0.22
2022-12-18T19:27:05.760Z,-0.32
2022-12-18T19:29:33.487Z,-0.20
2022-12-18T19:32:01.599Z,-0.22
2022-12-18T19:34:29.292Z,-0.25
2022-12-18T19:36:59.701Z,-0.25
2022-12-18T19:39:27.851Z,-0.29
2022-12-18T19:41:55.606Z,-0.36
2022-12-18T19:44:24.629Z,-0.40
2022-12-18T19:46:52.443Z,-0.40
2022-12-18T19:49:23.024Z,-0.55
2022-12-18T19:51:50.795Z,-0.57
2022-12-18T19:54:18.737Z,-0.51
2022-12-18T19:56:46.693Z,-0.56
2022-12-18T19:59:15.147Z,-0.60
2022-12-18T20:01:44.328Z,-0.61
2022-12-18T20:04:12.059Z,-0.64
2022-12-18T20:06:49.814Z,-0.63
2022-12-18T20:09:18.313Z,-0.59
2022-12-18T20:11:46.929Z,-0.59
2022-12-18T20:14:19.656Z,-0.58
2022-12-18T20:16:53.449Z,-0.63
2022-12-18T20:19:22.353Z,-0.77
2022-12-18T20:21:50.186Z,-0.64
2022-12-18T20:24:17.857Z,-0.66
2022-12-18T20:26:45.543Z,-0.66
2022-12-18T20:29:13.124Z,-0.66
2022-12-18T20:31:41.448Z,-0.68
2022-12-18T20:34:10.562Z,-0.72
2022-12-18T20:36:38.641Z,-0.63
2022-12-18T20:39:09.927Z,-0.64
2022-12-18T20:41:39.426Z,-0.68
2022-12-18T20:44:17.999Z,-0.69
2022-12-18T20:46:51.828Z,-0.66
2022-12-18T20:49:20.848Z,-0.65
2022-12-18T20:51:51.248Z,-0.65
2022-12-18T20:54:18.876Z,-0.62
2022-12-18T20:56:46.421Z,-0.60
2022-12-18T20:59:14.049Z,-0.64
2022-12-18T21:01:45.173Z,-0.60
2022-12-18T21:04:18.537Z,-0.61
2022-12-18T21:06:52.971Z,-0.62
2022-12-18T21:09:24.013Z,-0.60
2022-12-18T21:12:10.371Z,-0.75
2022-12-18T21:14:42.058Z,-0.59
2022-12-18T21:17:09.683Z,-0.62
2022-12-18T21:19:37.777Z,-0.63
2022-12-18T21:22:07.137Z,-0.56
2022-12-18T21:24:34.831Z,-0.57
2022-12-18T21:27:02.584Z,-0.60
2022-12-18T21:29:30.377Z,-0.58
2022-12-18T21:31:58.386Z,-0.60
2022-12-18T21:34:27.534Z,-0.56
2022-12-18T21:36:57.247Z,-0.67
2022-12-18T21:39:27.041Z,-0.54
2022-12-18T21:42:12.490Z,-0.50
2022-12-18T21:44:41.939Z,-0.51
2022-12-18T21:47:20.851Z,-0.50
2022-12-18T21:49:50.164Z,-0.52
2022-12-18T21:52:17.760Z,-0.49
2022-12-18T21:54:46.685Z,-0.46
2022-12-18T21:57:14.287Z,-0.44
2022-12-18T21:59:44.262Z,-0.45
2022-12-18T22:02:14.743Z,-0.54
2022-12-18T22:04:42.602Z,-0.42
2022-12-18T22:07:11.354Z,-0.37
2022-12-18T22:09:39.446Z,-0.39
2022-12-18T22:12:09.146Z,-0.39
2022-12-18T22:14:36.864Z,-0.37
2022-12-18T22:17:04.494Z,-0.36
2022-12-18T22:19:36.743Z,-0.32
2022-12-18T22:22:08.778Z,-0.32
2022-12-18T22:24:36.397Z,-0.31
2022-12-18T22:27:04.114Z,-0.30
2022-12-18T22:29:50.714Z,-0.27
2022-12-18T22:32:30.647Z,-0.40
2022-12-18T22:35:04.541Z,-0.27
2022-12-18T22:37:33.817Z,-0.25
2022-12-18T22:40:03.052Z,-0.20
2022-12-18T22:42:32.150Z,-0.18
2022-12-18T22:45:01.249Z,-0.17
2022-12-18T22:47:30.471Z,-0.18
2022-12-18T22:49:58.572Z,-0.19
2022-12-18T22:52:26.615Z,-0.17
2022-12-18T22:54:54.582Z,-0.44
2022-12-18T22:57:22.570Z,-0.27
2022-12-18T22:59:50.396Z,-0.20
2022-12-18T23:02:20.124Z,-0.11
2022-12-18T23:04:48.214Z,-0.12
2022-12-18T23:07:15.952Z,-0.13
2022-12-18T23:09:44.848Z,-0.11
2022-12-18T23:12:16.388Z,-0.07
2022-12-18T23:14:44.777Z,-0.08
2022-12-18T23:17:12.409Z,-0.03
2022-12-18T23:19:47.101Z,0.01
2022-12-18T23:22:16.325Z,0.00
2022-12-18T23:24:44.138Z,-0.01
2022-12-18T23:27:12.322Z,-0.02
2022-12-18T23:29:40.104Z,-0.02
2022-12-18T23:32:07.944Z,0.02
2022-12-18T23:34:35.624Z,-0.09
2022-12-18T23:37:04.671Z,0.01
2022-12-18T23:39:32.402Z,0.04
2022-12-18T23:42:00.760Z,-0.04
2022-12-18T23:44:28.983Z,0.12
2022-12-18T23:46:56.983Z,0.09
2022-12-18T23:49:24.817Z,0.13
2022-12-18T23:51:54.789Z,0.14
2022-12-18T23:54:32.762Z,0.14
2022-12-18T23:57:01.328Z,0.17
2022-12-18T23:59:29.028Z,0.21
